createdAt,value
2019-01-24T00:01:41.715Z,36.10
2019-01-24T00:04:16.827Z,36.80
2019-01-24T00:06:46.051Z,34.47
2019-01-24T00:09:17.592Z,36.17
2019-01-24T00:11:54.182Z,35.27
2019-01-24T00:14:23.942Z,36.03
2019-01-24T00:16:53.129Z,36.60
2019-01-24T00:19:22.367Z,35.27
2019-01-24T00:21:51.854Z,36.60
2019-01-24T00:24:22.649Z,34.53
2019-01-24T00:26:54.987Z,39.00
2019-01-24T00:29:25.292Z,38.53
2019-01-24T00:31:58.192Z,38.23
2019-01-24T00:34:34.748Z,36.30
2019-01-24T00:37:04.024Z,38.30
2019-01-24T00:39:34.041Z,35.83
2019-01-24T00:42:08.697Z,35.30
2019-01-24T00:44:38.355Z,37.50
2019-01-24T00:47:07.900Z,36.57
2019-01-24T00:49:37.704Z,36.43
2019-01-24T00:52:07.706Z,37.43
2019-01-24T00:54:38.306Z,37.63
2019-01-24T00:57:10.928Z,35.20
2019-01-24T00:59:40.426Z,37.67
2019-01-24T01:02:11.890Z,35.50
2019-01-24T01:04:42.191Z,35.90
2019-01-24T01:07:11.399Z,36.67
2019-01-24T01:09:40.916Z,39.53
2019-01-24T01:12:12.254Z,36.60
2019-01-24T01:14:43.884Z,36.40
2019-01-24T01:17:13.447Z,37.03
2019-01-24T01:19:43.436Z,36.67
2019-01-24T01:22:13.009Z,37.10
2019-01-24T01:24:42.797Z,35.60
2019-01-24T01:27:12.623Z,37.33
2019-01-24T01:29:42.887Z,36.40
2019-01-24T01:32:13.040Z,37.63
2019-01-24T01:34:42.503Z,34.67
2019-01-24T01:37:12.023Z,34.73
2019-01-24T01:39:43.583Z,34.90
2019-01-24T01:42:13.671Z,36.00
2019-01-24T01:44:43.980Z,36.97
2019-01-24T01:47:17.187Z,35.30
2019-01-24T01:49:46.700Z,35.67
2019-01-24T01:52:16.067Z,36.77
2019-01-24T01:54:46.354Z,34.77
2019-01-24T01:57:16.421Z,36.87
2019-01-24T01:59:46.505Z,33.93
2019-01-24T02:02:16.302Z,35.73
2019-01-24T02:04:46.037Z,35.57
2019-01-24T02:07:21.077Z,37.30
2019-01-24T02:09:51.361Z,36.97
2019-01-24T02:12:22.981Z,33.67
2019-01-24T02:14:53.034Z,33.60
2019-01-24T02:17:23.715Z,35.33
2019-01-24T02:19:54.007Z,34.17
2019-01-24T02:22:24.095Z,33.03
2019-01-24T02:24:58.365Z,35.20
2019-01-24T02:27:29.102Z,32.23
2019-01-24T02:29:59.094Z,33.50
2019-01-24T02:32:34.875Z,32.60
2019-01-24T02:35:06.391Z,30.80
2019-01-24T02:37:39.901Z,31.17
2019-01-24T02:40:09.845Z,31.37
2019-01-24T02:42:39.192Z,32.70
2019-01-24T02:45:12.558Z,31.90
2019-01-24T02:47:43.100Z,31.60
2019-01-24T02:50:16.583Z,34.93
2019-01-24T02:52:47.326Z,29.73
2019-01-24T02:55:19.153Z,31.00
2019-01-24T02:57:52.582Z,30.90
2019-01-24T03:00:25.970Z,33.30
2019-01-24T03:02:55.870Z,31.23
2019-01-24T03:05:25.086Z,30.67
2019-01-24T03:08:30.433Z,31.93
2019-01-24T03:11:01.785Z,32.13
2019-01-24T03:13:32.555Z,32.33
2019-01-24T03:16:09.962Z,29.63
2019-01-24T03:18:41.695Z,31.23
2019-01-24T03:21:14.246Z,32.97
2019-01-24T03:23:43.934Z,32.90
2019-01-24T03:26:13.947Z,31.43
2019-01-24T03:28:43.663Z,31.47
2019-01-24T03:31:13.069Z,31.80
2019-01-24T03:33:42.511Z,31.50
2019-01-24T03:36:12.435Z,31.73
2019-01-24T03:38:46.580Z,33.10
2019-01-24T03:41:16.001Z,32.27
2019-01-24T03:43:47.280Z,30.37
2019-01-24T03:46:16.799Z,32.90
2019-01-24T03:48:46.004Z,30.93
2019-01-24T03:51:22.355Z,32.93
2019-01-24T03:53:52.593Z,33.20
2019-01-24T03:56:25.964Z,32.13
2019-01-24T03:58:57.325Z,32.27
2019-01-24T04:01:26.797Z,28.87
2019-01-24T04:04:03.609Z,32.47
2019-01-24T04:06:34.872Z,30.60
2019-01-24T04:09:07.871Z,31.13
2019-01-24T04:11:37.910Z,32.80
2019-01-24T04:14:12.894Z,29.93
2019-01-24T04:16:43.196Z,30.53
2019-01-24T04:19:12.620Z,29.57
2019-01-24T04:21:42.361Z,31.30
2019-01-24T04:24:11.834Z,32.60
2019-01-24T04:26:42.006Z,31.00
2019-01-24T04:29:12.579Z,32.27
2019-01-24T04:31:42.046Z,31.63
2019-01-24T04:34:11.509Z,32.33
2019-01-24T04:36:41.494Z,32.50
2019-01-24T04:39:12.505Z,31.17
2019-01-24T04:41:42.664Z,33.37
2019-01-24T04:44:12.104Z,33.30
2019-01-24T04:46:45.428Z,33.50
2019-01-24T04:49:15.892Z,31.37
2019-01-24T04:51:47.058Z,31.47
2019-01-24T04:54:18.127Z,30.90
2019-01-24T04:56:47.552Z,31.67
2019-01-24T04:59:19.035Z,32.20
2019-01-24T05:01:52.753Z,31.30
2019-01-24T05:04:23.971Z,31.57
2019-01-24T05:06:54.775Z,31.50
2019-01-24T05:09:24.886Z,31.50
2019-01-24T05:11:54.386Z,31.27
2019-01-24T05:14:24.956Z,33.30
2019-01-24T05:16:56.318Z,31.07
2019-01-24T05:19:29.963Z,34.03
2019-01-24T05:21:59.715Z,31.30
2019-01-24T05:24:30.212Z,32.67
2019-01-24T05:26:59.412Z,31.93
2019-01-24T05:29:29.717Z,34.57
2019-01-24T05:32:01.603Z,33.03
2019-01-24T05:34:31.651Z,31.93
2019-01-24T05:37:01.591Z,33.27
2019-01-24T05:39:33.564Z,34.30
2019-01-24T05:42:04.093Z,33.30
2019-01-24T05:44:37.941Z,31.40
2019-01-24T05:47:10.446Z,32.13
2019-01-24T05:49:40.095Z,32.03
2019-01-24T05:52:19.188Z,33.33
2019-01-24T05:54:48.758Z,31.43
2019-01-24T05:57:20.428Z,33.60
2019-01-24T05:59:51.037Z,33.93
2019-01-24T06:02:22.489Z,32.33
2019-01-24T06:04:54.462Z,33.13
2019-01-24T06:07:26.160Z,31.67
2019-01-24T06:10:00.571Z,32.27
2019-01-24T06:12:31.328Z,32.67
2019-01-24T06:15:00.993Z,34.00
2019-01-24T06:17:36.854Z,33.23
2019-01-24T06:20:08.403Z,32.37
2019-01-24T06:22:37.553Z,32.53
2019-01-24T06:25:07.447Z,31.87
2019-01-24T06:27:36.982Z,33.43
2019-01-24T06:30:09.351Z,36.33
2019-01-24T06:32:41.107Z,38.53
2019-01-24T06:35:10.465Z,38.10
2019-01-24T06:37:42.449Z,34.73
2019-01-24T06:40:14.052Z,35.77
2019-01-24T06:42:43.653Z,44.47
2019-01-24T06:45:18.612Z,39.20
2019-01-24T06:47:49.045Z,37.73
2019-01-24T06:50:19.693Z,34.80
2019-01-24T06:52:50.244Z,35.77
2019-01-24T06:55:26.735Z,36.93
2019-01-24T06:57:58.228Z,38.17
2019-01-24T07:00:29.641Z,37.40
2019-01-24T07:02:59.398Z,38.10
2019-01-24T07:05:29.389Z,36.83
2019-01-24T07:08:00.675Z,38.53
2019-01-24T07:10:35.143Z,36.93
2019-01-24T07:13:04.803Z,40.47
2019-01-24T07:15:34.330Z,37.13
2019-01-24T07:18:04.811Z,36.70
2019-01-24T07:20:33.998Z,35.37
2019-01-24T07:23:04.850Z,36.97
2019-01-24T07:25:35.130Z,37.67
2019-01-24T07:28:05.049Z,39.53
2019-01-24T07:30:34.240Z,35.40
2019-01-24T07:33:08.843Z,36.03
2019-01-24T07:35:40.571Z,36.07
2019-01-24T07:38:11.599Z,37.37
2019-01-24T07:40:41.866Z,37.43
2019-01-24T07:43:11.344Z,39.23
2019-01-24T07:45:42.545Z,37.63
2019-01-24T07:48:11.741Z,36.13
2019-01-24T07:50:45.004Z,37.47
2019-01-24T07:53:18.547Z,38.10
2019-01-24T07:55:51.322Z,39.57
2019-01-24T07:58:27.237Z,35.23
2019-01-24T08:00:58.302Z,36.70
2019-01-24T08:03:28.580Z,38.03
2019-01-24T08:05:57.881Z,34.37
2019-01-24T08:08:27.161Z,34.60
2019-01-24T08:10:59.251Z,35.27
2019-01-24T08:13:29.238Z,33.93
2019-01-24T08:16:01.905Z,34.07
2019-01-24T08:18:31.655Z,34.13
2019-01-24T08:21:01.160Z,36.17
2019-01-24T08:23:31.451Z,35.00
2019-01-24T08:26:01.731Z,34.27
2019-01-24T08:28:31.366Z,35.83
2019-01-24T08:31:00.579Z,34.80
2019-01-24T08:33:31.287Z,33.97
2019-01-24T08:36:00.601Z,35.13
2019-01-24T08:38:29.888Z,36.13
2019-01-24T08:40:59.080Z,35.30
2019-01-24T08:43:28.988Z,34.63
2019-01-24T08:45:58.506Z,39.97
2019-01-24T08:48:29.823Z,35.73
2019-01-24T08:51:00.206Z,34.23
2019-01-24T08:53:29.443Z,33.87
2019-01-24T08:55:59.825Z,33.73
2019-01-24T08:58:30.616Z,35.30
2019-01-24T09:00:59.924Z,33.23
2019-01-24T09:03:30.872Z,34.00
2019-01-24T09:06:01.149Z,33.77
2019-01-24T09:08:30.214Z,34.30
2019-01-24T09:10:59.548Z,33.50
2019-01-24T09:13:31.579Z,34.27
2019-01-24T09:16:01.553Z,34.77
2019-01-24T09:18:30.974Z,33.27
2019-01-24T09:21:00.294Z,35.70
2019-01-24T09:23:29.830Z,33.77
2019-01-24T09:25:59.817Z,31.80
2019-01-24T09:28:29.314Z,33.93
2019-01-24T09:30:59.144Z,33.10
2019-01-24T09:33:28.632Z,33.63
2019-01-24T09:36:00.113Z,33.13
2019-01-24T09:38:29.645Z,30.70
2019-01-24T09:41:01.310Z,34.40
2019-01-24T09:43:30.755Z,32.97
2019-01-24T09:46:00.364Z,30.90
2019-01-24T09:48:30.702Z,31.63
2019-01-24T09:51:09.023Z,30.33
2019-01-24T09:53:39.804Z,32.83
2019-01-24T09:56:09.451Z,30.90
2019-01-24T09:58:39.637Z,30.47
2019-01-24T10:01:11.679Z,33.03
2019-01-24T10:03:43.201Z,32.43
2019-01-24T10:06:12.402Z,32.33
2019-01-24T10:08:41.849Z,30.67
2019-01-24T10:11:12.063Z,31.90
2019-01-24T10:13:41.314Z,30.67
2019-01-24T10:16:10.863Z,31.63
2019-01-24T10:18:51.087Z,32.10
2019-01-24T10:21:22.140Z,30.57
2019-01-24T10:23:51.600Z,31.20
2019-01-24T10:26:23.316Z,31.43
2019-01-24T10:28:54.068Z,30.97
2019-01-24T10:31:23.634Z,33.80
2019-01-24T10:33:52.810Z,33.27
2019-01-24T10:36:22.044Z,32.57
2019-01-24T10:38:51.706Z,30.73
2019-01-24T10:41:25.056Z,29.93
2019-01-24T10:43:55.747Z,30.83
2019-01-24T10:46:25.198Z,28.60
2019-01-24T10:48:54.414Z,29.23
2019-01-24T10:51:24.906Z,29.50
2019-01-24T10:53:54.950Z,31.00
2019-01-24T10:56:24.119Z,30.30
2019-01-24T10:58:53.630Z,29.30
2019-01-24T11:01:22.824Z,30.67
2019-01-24T11:03:52.322Z,31.37
2019-01-24T11:06:21.797Z,32.47
2019-01-24T11:08:51.082Z,35.03
2019-01-24T11:11:22.388Z,33.97
2019-01-24T11:13:51.685Z,29.93
2019-01-24T11:16:20.832Z,29.77
2019-01-24T11:18:50.047Z,29.90
2019-01-24T11:21:19.229Z,29.50
2019-01-24T11:23:51.441Z,27.57
2019-01-24T11:26:20.686Z,27.50
2019-01-24T11:28:52.363Z,26.90
2019-01-24T11:31:23.108Z,27.17
2019-01-24T11:33:53.165Z,26.73
2019-01-24T11:36:22.426Z,28.17
2019-01-24T11:38:51.888Z,28.73
2019-01-24T11:41:23.438Z,29.43
2019-01-24T11:43:52.657Z,28.13
2019-01-24T11:46:22.934Z,28.37
2019-01-24T11:48:54.529Z,28.10
2019-01-24T11:51:25.587Z,28.93
2019-01-24T11:53:57.868Z,30.50
2019-01-24T11:56:27.389Z,29.13
2019-01-24T11:58:57.120Z,26.70
2019-01-24T12:01:26.466Z,29.77
2019-01-24T12:03:56.015Z,27.80
2019-01-24T12:06:26.039Z,29.33
2019-01-24T12:08:55.514Z,30.07
2019-01-24T12:11:24.917Z,29.93
2019-01-24T12:13:54.133Z,30.20
2019-01-24T12:16:23.354Z,30.03
2019-01-24T12:18:53.996Z,31.13
2019-01-24T12:21:23.809Z,31.97
2019-01-24T12:23:54.102Z,30.50
2019-01-24T12:26:23.612Z,32.33
2019-01-24T12:28:53.627Z,32.77
2019-01-24T12:31:22.804Z,31.27
2019-01-24T12:34:03.402Z,31.43
2019-01-24T12:36:32.555Z,32.83
2019-01-24T12:39:06.173Z,31.93
2019-01-24T12:41:35.654Z,37.83
2019-01-24T12:44:04.982Z,34.60
2019-01-24T12:46:35.010Z,36.27
2019-01-24T12:49:05.210Z,41.20
2019-01-24T12:51:36.894Z,31.57
2019-01-24T12:54:06.755Z,32.00
2019-01-24T12:56:39.640Z,34.77
2019-01-24T12:59:08.832Z,31.37
2019-01-24T13:01:39.221Z,34.60
2019-01-24T13:04:08.971Z,33.57
2019-01-24T13:06:38.689Z,37.03
2019-01-24T13:09:10.064Z,32.63
2019-01-24T13:11:41.683Z,33.13
2019-01-24T13:14:11.879Z,30.17
2019-01-24T13:16:42.329Z,29.57
2019-01-24T13:19:12.583Z,29.83
2019-01-24T13:21:42.071Z,31.33
2019-01-24T13:24:13.005Z,34.83
2019-01-24T13:26:47.369Z,32.53
2019-01-24T13:29:16.867Z,31.07
2019-01-24T13:31:46.609Z,30.47
2019-01-24T13:34:16.185Z,30.77
2019-01-24T13:36:46.009Z,29.13
2019-01-24T13:39:15.177Z,31.73
2019-01-24T13:41:45.131Z,30.27
2019-01-24T13:44:16.604Z,30.13
2019-01-24T13:46:46.140Z,28.97
2019-01-24T13:49:16.116Z,29.87
2019-01-24T13:51:46.918Z,29.67
2019-01-24T13:54:19.142Z,31.50
2019-01-24T13:56:48.716Z,29.93
2019-01-24T13:59:19.055Z,31.60
2019-01-24T14:01:48.741Z,31.10
2019-01-24T14:04:35.734Z,31.83
2019-01-24T14:07:10.400Z,31.43
2019-01-24T14:09:43.654Z,31.37
2019-01-24T14:12:14.151Z,29.37
2019-01-24T14:14:43.839Z,31.57
2019-01-24T14:17:13.636Z,30.87
2019-01-24T14:19:44.683Z,30.17
2019-01-24T14:22:17.631Z,31.43
2019-01-24T14:24:47.465Z,31.20
2019-01-24T14:27:18.238Z,31.10
2019-01-24T14:29:48.718Z,31.80
2019-01-24T14:32:19.087Z,30.00
2019-01-24T14:34:48.388Z,30.60
2019-01-24T14:37:18.473Z,30.77
2019-01-24T14:39:48.104Z,30.03
2019-01-24T14:42:17.617Z,28.93
2019-01-24T14:44:47.045Z,31.33
2019-01-24T14:47:16.210Z,30.53
2019-01-24T14:49:46.948Z,29.47
2019-01-24T14:52:16.386Z,31.50
2019-01-24T14:54:46.630Z,30.27
2019-01-24T14:57:16.051Z,30.20
2019-01-24T14:59:45.474Z,31.93
2019-01-24T15:02:15.416Z,32.83
2019-01-24T15:04:45.361Z,32.37
2019-01-24T15:07:15.753Z,31.70
2019-01-24T15:09:45.928Z,31.17
2019-01-24T15:12:16.084Z,31.90
2019-01-24T15:14:45.624Z,31.83
2019-01-24T15:17:15.163Z,31.37
2019-01-24T15:19:46.780Z,32.83
2019-01-24T15:22:16.254Z,31.97
2019-01-24T15:24:46.750Z,33.03
2019-01-24T15:27:16.498Z,31.67
2019-01-24T15:29:47.067Z,33.73
2019-01-24T15:32:27.734Z,33.00
2019-01-24T15:34:59.777Z,31.47
2019-01-24T15:37:30.085Z,31.73
2019-01-24T15:39:59.450Z,32.60
2019-01-24T15:42:32.221Z,31.17
2019-01-24T15:45:01.791Z,32.40
2019-01-24T15:47:31.118Z,30.93
2019-01-24T15:50:01.020Z,32.73
2019-01-24T15:52:34.159Z,32.27
2019-01-24T15:55:03.215Z,32.43
2019-01-24T15:57:41.290Z,31.60
2019-01-24T16:00:16.576Z,32.33
2019-01-24T16:02:46.685Z,32.57
2019-01-24T16:05:16.592Z,32.23
2019-01-24T16:07:50.534Z,31.57
2019-01-24T16:10:20.941Z,31.10
2019-01-24T16:13:10.849Z,32.13
2019-01-24T16:15:41.928Z,31.43
2019-01-24T16:18:13.649Z,29.80
2019-01-24T16:20:46.779Z,29.93
2019-01-24T16:23:16.215Z,29.53
2019-01-24T16:25:46.785Z,30.83
2019-01-24T16:28:16.518Z,30.77
2019-01-24T16:30:47.183Z,31.33
2019-01-24T16:33:17.784Z,30.07
2019-01-24T16:35:48.169Z,29.83
2019-01-24T16:38:18.342Z,30.83
2019-01-24T16:40:48.165Z,29.37
2019-01-24T16:43:17.332Z,30.97
2019-01-24T16:45:47.311Z,29.23
2019-01-24T16:48:16.820Z,26.53
2019-01-24T16:50:46.637Z,24.93
2019-01-24T16:53:17.143Z,26.43
2019-01-24T16:55:47.194Z,25.97
2019-01-24T16:58:16.764Z,24.40
2019-01-24T17:00:53.638Z,24.53
2019-01-24T17:03:24.386Z,26.07
2019-01-24T17:05:54.913Z,25.43
2019-01-24T17:08:24.658Z,25.23
2019-01-24T17:10:55.411Z,24.57
2019-01-24T17:13:24.649Z,24.47
2019-01-24T17:15:53.868Z,26.83
2019-01-24T17:18:24.480Z,25.03
2019-01-24T17:20:54.064Z,24.80
2019-01-24T17:23:26.720Z,26.00
2019-01-24T17:25:55.926Z,25.97
2019-01-24T17:28:29.094Z,25.80
2019-01-24T17:30:59.064Z,25.80
2019-01-24T17:33:37.291Z,24.57
2019-01-24T17:36:08.104Z,25.17
2019-01-24T17:38:37.971Z,24.50
2019-01-24T17:41:11.140Z,25.60
2019-01-24T17:43:40.800Z,25.60
2019-01-24T17:46:13.694Z,25.73
2019-01-24T17:48:43.757Z,24.13
2019-01-24T17:51:13.304Z,24.67
2019-01-24T17:53:42.570Z,23.90
2019-01-24T17:56:12.067Z,24.50
2019-01-24T17:58:41.602Z,23.13
2019-01-24T18:01:12.131Z,23.40
2019-01-24T18:03:42.677Z,24.37
2019-01-24T18:06:15.033Z,23.50
2019-01-24T18:08:51.782Z,24.07
2019-01-24T18:11:27.707Z,23.17
2019-01-24T18:13:57.357Z,23.87
2019-01-24T18:16:29.838Z,24.97
2019-01-24T18:19:00.040Z,25.60
2019-01-24T18:21:32.281Z,27.30
2019-01-24T18:24:02.066Z,25.20
2019-01-24T18:26:31.290Z,22.33
2019-01-24T18:29:00.735Z,23.30
2019-01-24T18:31:31.961Z,23.13
2019-01-24T18:34:01.912Z,22.37
2019-01-24T18:36:33.102Z,21.97
2019-01-24T18:39:05.781Z,22.33
2019-01-24T18:41:35.245Z,23.37
2019-01-24T18:44:04.517Z,22.63
2019-01-24T18:46:37.013Z,23.30
2019-01-24T18:49:07.495Z,23.33
2019-01-24T18:51:38.045Z,22.47
2019-01-24T18:54:07.948Z,22.73
2019-01-24T18:56:37.828Z,23.67
2019-01-24T18:59:08.154Z,22.70
2019-01-24T19:01:40.962Z,22.77
2019-01-24T19:04:10.461Z,23.73
2019-01-24T19:06:40.519Z,22.50
2019-01-24T19:09:10.112Z,24.50
2019-01-24T19:11:39.658Z,23.17
2019-01-24T19:14:09.247Z,22.20
2019-01-24T19:16:39.708Z,21.80
2019-01-24T19:19:09.940Z,22.20
2019-01-24T19:21:39.493Z,22.30
2019-01-24T19:24:09.832Z,22.83
2019-01-24T19:26:39.312Z,22.27
2019-01-24T19:29:08.482Z,21.87
2019-01-24T19:31:38.760Z,22.30
2019-01-24T19:34:08.280Z,22.50
2019-01-24T19:36:37.501Z,21.73
2019-01-24T19:39:09.331Z,21.80
2019-01-24T19:41:38.819Z,22.87
2019-01-24T19:44:15.431Z,21.47
2019-01-24T19:46:39.532Z,22.67
2019-01-24T19:49:08.716Z,24.90
2019-01-24T19:51:38.683Z,25.07
2019-01-24T19:54:09.559Z,32.23
2019-01-24T19:56:42.425Z,26.13
2019-01-24T19:59:12.904Z,23.00
2019-01-24T20:01:44.659Z,26.27
2019-01-24T20:04:14.221Z,25.13
2019-01-24T20:06:44.511Z,25.23
2019-01-24T20:09:15.681Z,28.90
2019-01-24T20:11:49.403Z,23.27
2019-01-24T20:14:19.345Z,26.80
2019-01-24T20:16:53.640Z,24.90
2019-01-24T20:19:23.985Z,21.83
2019-01-24T20:21:53.594Z,22.20
2019-01-24T20:24:24.102Z,21.70
2019-01-24T20:26:54.696Z,20.77
2019-01-24T20:29:25.034Z,21.70
2019-01-24T20:31:54.444Z,19.60
2019-01-24T20:34:25.593Z,20.00
2019-01-24T20:36:56.022Z,19.33
2019-01-24T20:39:25.661Z,19.63
2019-01-24T20:41:55.437Z,20.07
2019-01-24T20:44:26.164Z,20.43
2019-01-24T20:46:55.940Z,18.40
2019-01-24T20:49:25.182Z,19.37
2019-01-24T20:51:54.601Z,22.10
2019-01-24T20:54:23.827Z,21.23
2019-01-24T20:56:53.665Z,22.70
2019-01-24T20:59:23.673Z,21.27
2019-01-24T21:01:54.293Z,22.70
2019-01-24T21:04:24.554Z,22.53
2019-01-24T21:06:57.098Z,20.13
2019-01-24T21:09:29.203Z,18.97
2019-01-24T21:11:58.728Z,19.00
2019-01-24T21:14:27.973Z,19.00
2019-01-24T21:16:57.427Z,20.70
2019-01-24T21:19:27.072Z,20.90
2019-01-24T21:21:56.985Z,23.63
2019-01-24T21:24:27.652Z,20.77
2019-01-24T21:26:58.069Z,20.53
2019-01-24T21:29:27.703Z,21.67
2019-01-24T21:31:57.187Z,19.03
2019-01-24T21:34:26.394Z,19.73
2019-01-24T21:36:58.851Z,24.73
2019-01-24T21:39:29.756Z,20.30
2019-01-24T21:41:59.277Z,18.33
2019-01-24T21:44:33.651Z,18.03
2019-01-24T21:47:03.974Z,18.10
2019-01-24T21:49:33.450Z,17.37
2019-01-24T21:52:02.919Z,18.67
2019-01-24T21:54:31.934Z,18.13
2019-01-24T21:57:01.480Z,18.40
2019-01-24T21:59:35.465Z,17.77
2019-01-24T22:02:05.165Z,18.53
2019-01-24T22:04:38.582Z,17.80
2019-01-24T22:07:08.492Z,19.17
2019-01-24T22:09:37.698Z,17.97
2019-01-24T22:12:07.672Z,19.10
2019-01-24T22:14:36.834Z,18.83
2019-01-24T22:17:10.159Z,19.33
2019-01-24T22:19:41.553Z,18.43
2019-01-24T22:22:11.105Z,18.47
2019-01-24T22:24:42.184Z,18.93
2019-01-24T22:27:11.947Z,19.57
2019-01-24T22:29:41.379Z,19.47
2019-01-24T22:32:12.132Z,19.60
2019-01-24T22:34:45.423Z,19.33
2019-01-24T22:37:17.212Z,18.97
2019-01-24T22:39:46.407Z,19.00
2019-01-24T22:42:16.480Z,19.90
2019-01-24T22:44:47.069Z,19.00
2019-01-24T22:47:17.857Z,18.63
2019-01-24T22:49:52.387Z,18.40
2019-01-24T22:52:21.629Z,18.07
2019-01-24T22:54:51.949Z,18.33
2019-01-24T22:57:21.569Z,19.47
2019-01-24T22:59:52.289Z,18.57
2019-01-24T23:02:25.158Z,19.07
2019-01-24T23:04:54.410Z,18.57
2019-01-24T23:07:25.940Z,19.57
2019-01-24T23:09:55.639Z,19.47
2019-01-24T23:12:25.586Z,20.23
2019-01-24T23:14:55.038Z,18.40
2019-01-24T23:17:25.464Z,18.80
2019-01-24T23:19:55.374Z,18.50
2019-01-24T23:22:25.550Z,20.23
2019-01-24T23:24:57.465Z,18.93
2019-01-24T23:27:28.722Z,18.40
2019-01-24T23:30:01.210Z,19.80
2019-01-24T23:32:31.831Z,19.13
2019-01-24T23:35:24.729Z,19.47
2019-01-24T23:37:55.004Z,19.93
2019-01-24T23:40:25.227Z,20.40
2019-01-24T23:42:56.297Z,19.60
2019-01-24T23:45:31.992Z,19.63
2019-01-24T23:48:01.950Z,19.20
2019-01-24T23:50:35.597Z,19.37
2019-01-24T23:53:05.504Z,20.63
2019-01-24T23:55:35.560Z,20.60
2019-01-24T23:58:06.029Z,20.80
